Time;durP1;ratioP1;P1;durP2;ratioP2;P2;SDS_P1;SDS_P2;PMS_P1;PMS_P2;Temp;Humidity;BMP_temperature;BMP_pressure;BME280_temperature;BME280_humidity;BME280_pressure;Samples;Min_cycle;Max_cycle;Signal;HPM_P1;HPM_P2
2021/07/24 00:00:26;;;;;;;2.20;1.73;;;24.50;55.40;;;;;;6292115;28;20024;-69
2021/07/24 00:03:28;;;;;;;2.08;1.63;;;24.50;55.40;;;;;;6290853;28;20021;-70
2021/07/24 00:06:28;;;;;;;1.98;1.50;;;24.50;55.40;;;;;;6291940;28;20135;-70
2021/07/24 00:09:29;;;;;;;2.00;1.52;;;24.50;55.50;;;;;;6292198;28;20524;-69
2021/07/24 00:12:30;;;;;;;2.05;1.48;;;24.50;55.50;;;;;;6292153;28;20016;-69
2021/07/24 00:15:30;;;;;;;1.30;1.20;;;24.50;55.50;;;;;;6280614;28;20032;-69
2021/07/24 00:18:34;;;;;;;2.17;1.60;;;24.50;55.50;;;;;;6284343;28;20028;-70
2021/07/24 00:21:34;;;;;;;2.15;1.48;;;24.50;55.50;;;;;;6291992;28;20096;-69
2021/07/24 00:24:35;;;;;;;1.92;1.60;;;24.50;55.50;;;;;;6291863;28;20024;-70
2021/07/24 00:27:35;;;;;;;1.80;1.58;;;24.50;55.50;;;;;;6292360;28;20034;-69
2021/07/24 00:30:41;;;;;;;1.65;1.45;;;24.50;55.50;;;;;;6291709;28;20029;-69
2021/07/24 00:33:41;;;;;;;2.13;1.80;;;24.50;55.60;;;;;;6291835;28;20032;-69
2021/07/24 00:36:42;;;;;;;2.20;1.50;;;24.50;55.60;;;;;;6242113;28;20037;-70
2021/07/24 00:39:42;;;;;;;2.17;1.48;;;24.50;55.60;;;;;;6257236;28;20518;-70
2021/07/24 00:42:44;;;;;;;2.30;1.60;;;24.50;55.60;;;;;;6291159;28;20158;-70
2021/07/24 00:45:47;;;;;;;1.70;1.60;;;24.50;55.60;;;;;;6291535;28;20372;-69
2021/07/24 00:48:49;;;;;;;1.60;1.50;;;24.50;55.60;;;;;;6291686;28;20025;-69
2021/07/24 00:51:53;;;;;;;1.77;1.33;;;24.50;55.60;;;;;;6291592;28;20437;-69
2021/07/24 00:54:53;;;;;;;1.90;1.50;;;24.50;55.60;;;;;;6291014;28;20048;-69
2021/07/24 00:57:54;;;;;;;2.33;1.80;;;24.50;55.70;;;;;;6291532;28;20028;-70
2021/07/24 01:00:55;;;;;;;1.70;1.60;;;24.50;55.70;;;;;;6291075;28;20024;-70
2021/07/24 01:03:56;;;;;;;1.98;1.45;;;24.50;55.70;;;;;;6290980;28;20392;-69
2021/07/24 01:06:57;;;;;;;1.65;1.55;;;24.40;55.60;;;;;;6287121;28;20059;-70
2021/07/24 01:09:58;;;;;;;2.08;1.60;;;24.50;55.70;;;;;;6291513;28;20107;-70
2021/07/24 01:12:58;;;;;;;1.88;1.50;;;24.50;55.70;;;;;;6285584;28;20527;-70
2021/07/24 01:15:59;;;;;;;2.38;1.98;;;24.50;55.70;;;;;;6264306;28;20438;-69
2021/07/24 01:18:59;;;;;;;1.55;1.40;;;24.50;55.80;;;;;;6279911;28;20025;-70
2021/07/24 01:22:00;;;;;;;1.52;1.40;;;24.50;55.70;;;;;;6291350;28;20538;-69
2021/07/24 01:25:00;;;;;;;1.63;1.45;;;24.50;55.80;;;;;;6291173;28;20028;-70
2021/07/24 01:28:01;;;;;;;1.80;1.40;;;24.40;55.70;;;;;;6291179;28;20068;-70
2021/07/24 01:31:04;;;;;;;1.63;1.52;;;24.50;55.80;;;;;;6290747;28;20044;-70
2021/07/24 01:34:05;;;;;;;1.92;1.50;;;24.40;55.70;;;;;;6290659;28;20076;-69
2021/07/24 01:37:05;;;;;;;1.70;1.60;;;24.40;55.70;;;;;;6290503;28;20511;-69
2021/07/24 01:40:06;;;;;;;1.40;1.30;;;24.40;55.80;;;;;;6291200;28;20107;-70
2021/07/24 01:43:07;;;;;;;1.58;1.33;;;24.40;55.70;;;;;;6290743;28;20511;-70
2021/07/24 01:46:08;;;;;;;1.50;1.40;;;24.40;56.50;;;;;;6290649;28;20029;-69
2021/07/24 01:49:12;;;;;;;2.30;1.50;;;24.50;55.80;;;;;;6290844;28;20017;-69
2021/07/24 01:55:53;;;;;;;1.45;1.30;;;24.40;55.80;;;;;;6290594;28;20041;-70
2021/07/24 01:58:53;;;;;;;1.75;1.50;;;24.40;55.80;;;;;;6291204;28;20020;-69
2021/07/24 02:01:55;;;;;;;1.77;1.40;;;24.40;55.80;;;;;;6290063;28;20071;-69
2021/07/24 02:04:58;;;;;;;1.80;1.40;;;24.40;55.80;;;;;;6291130;28;20108;-70
2021/07/24 02:08:02;;;;;;;1.67;1.40;;;24.40;55.80;;;;;;6290192;28;20032;-70
2021/07/24 02:11:04;;;;;;;1.33;1.20;;;24.40;55.90;;;;;;6290424;28;20027;-70
2021/07/24 02:14:05;;;;;;;1.70;1.55;;;24.40;55.90;;;;;;6266660;28;20112;-69
2021/07/24 02:17:06;;;;;;;1.73;1.40;;;24.40;55.90;;;;;;6267939;28;20041;-69
2021/07/24 02:20:09;;;;;;;1.50;1.40;;;24.40;55.90;;;;;;6273455;28;20625;-69
2021/07/24 02:23:10;;;;;;;1.27;1.10;;;24.40;55.90;;;;;;6289183;28;20024;-70
2021/07/24 02:26:12;;;;;;;1.38;1.10;;;24.40;55.90;;;;;;6294377;28;20071;-70
2021/07/24 02:29:12;;;;;;;1.75;1.38;;;24.40;55.90;;;;;;6294802;28;20028;-70
2021/07/24 02:32:13;;;;;;;1.60;1.48;;;24.40;55.90;;;;;;6294609;28;20066;-70
2021/07/24 02:35:14;;;;;;;1.30;1.20;;;24.40;56.00;;;;;;6294536;28;20111;-70
2021/07/24 02:38:15;;;;;;;1.73;1.60;;;24.40;55.90;;;;;;6294244;28;20240;-69
2021/07/24 02:41:16;;;;;;;1.80;1.40;;;24.40;56.00;;;;;;6294104;28;20387;-70
2021/07/24 02:44:16;;;;;;;1.60;1.30;;;24.40;56.00;;;;;;6294142;28;20237;-70
2021/07/24 02:47:17;;;;;;;1.70;1.30;;;24.40;56.00;;;;;;6293848;28;20043;-69
2021/07/24 02:50:17;;;;;;;1.35;1.25;;;24.40;56.00;;;;;;6294214;28;20052;-70
2021/07/24 02:53:18;;;;;;;1.40;1.15;;;24.40;56.70;;;;;;6294053;28;20078;-69
2021/07/24 02:56:18;;;;;;;1.73;1.40;;;24.40;56.00;;;;;;6293737;28;20147;-70
2021/07/24 02:59:19;;;;;;;1.52;1.42;;;24.40;56.00;;;;;;6293915;28;20025;-71
2021/07/24 03:02:19;;;;;;;1.60;1.50;;;24.40;56.00;;;;;;6293759;28;20036;-70
2021/07/24 03:05:20;;;;;;;1.67;1.38;;;24.40;56.00;;;;;;6293861;28;20020;-70
2021/07/24 03:08:20;;;;;;;1.60;1.42;;;24.40;56.00;;;;;;6293577;28;20052;-69
2021/07/24 03:11:21;;;;;;;1.98;1.40;;;24.40;56.00;;;;;;6293998;28;20028;-70
2021/07/24 03:14:21;;;;;;;1.45;1.35;;;24.40;56.00;;;;;;6276849;28;20493;-69
2021/07/24 03:17:23;;;;;;;1.33;1.23;;;24.40;56.00;;;;;;6293235;28;20032;-70
2021/07/24 03:20:24;;;;;;;1.27;1.17;;;24.40;56.00;;;;;;6269799;28;20017;-70
2021/07/24 03:23:24;;;;;;;1.50;1.30;;;24.40;56.10;;;;;;6276904;28;20040;-69
2021/07/24 03:26:25;;;;;;;1.58;1.05;;;24.40;56.10;;;;;;6293052;28;20029;-70
2021/07/24 03:29:26;;;;;;;1.40;1.30;;;24.40;56.10;;;;;;6293033;28;20036;-69
2021/07/24 03:32:26;;;;;;;1.73;1.45;;;24.40;56.10;;;;;;6293223;28;20038;-70
2021/07/24 03:35:27;;;;;;;1.50;1.40;;;24.40;56.10;;;;;;6293258;28;20498;-69
2021/07/24 03:38:27;;;;;;;1.70;1.40;;;24.40;56.10;;;;;;6293116;28;20107;-70
2021/07/24 03:41:28;;;;;;;1.23;1.13;;;24.40;56.10;;;;;;6292812;28;20476;-70
2021/07/24 03:44:29;;;;;;;1.52;1.33;;;24.40;56.10;;;;;;6292310;28;20039;-70
2021/07/24 03:47:31;;;;;;;1.40;1.30;;;24.40;56.80;;;;;;6292660;28;20111;-70
2021/07/24 03:50:32;;;;;;;1.50;1.40;;;24.40;56.10;;;;;;6292772;28;20242;-69
2021/07/24 03:53:33;;;;;;;1.42;1.27;;;24.40;56.20;;;;;;6292614;28;20031;-69
2021/07/24 03:56:33;;;;;;;1.67;1.23;;;24.40;56.20;;;;;;6292505;28;20029;-69
2021/07/24 04:03:31;;;;;;;1.25;1.15;;;24.40;56.20;;;;;;6292563;28;20423;-69
2021/07/24 04:06:31;;;;;;;1.52;1.42;;;24.40;56.90;;;;;;6292851;28;20039;-69
2021/07/24 04:09:33;;;;;;;1.30;1.17;;;24.40;56.20;;;;;;6292090;28;20504;-70
2021/07/24 04:12:39;;;;;;;4.43;1.30;;;24.40;56.20;;;;;;6292645;28;20069;-70
2021/07/24 04:15:40;;;;;;;1.65;1.42;;;24.40;56.20;;;;;;6282463;28;20407;-70
2021/07/24 04:18:41;;;;;;;1.58;1.40;;;24.40;56.20;;;;;;6285336;28;20045;-70
2021/07/24 04:21:42;;;;;;;1.60;1.40;;;24.40;56.20;;;;;;6293727;28;20034;-70
2021/07/24 04:24:42;;;;;;;1.40;1.20;;;24.40;56.30;;;;;;6292049;28;20078;-70
2021/07/24 04:27:44;;;;;;;1.55;1.40;;;24.40;56.30;;;;;;6291883;28;20516;-70
2021/07/24 04:30:44;;;;;;;1.38;1.08;;;24.40;56.30;;;;;;6291575;28;20082;-69
2021/07/24 04:33:45;;;;;;;2.08;1.40;;;24.40;56.30;;;;;;6291662;28;20032;-69
2021/07/24 04:36:45;;;;;;;1.40;1.20;;;24.40;56.30;;;;;;6291443;28;20024;-69
2021/07/24 04:39:46;;;;;;;1.27;1.13;;;24.40;56.30;;;;;;6291485;28;20450;-69
2021/07/24 04:42:47;;;;;;;1.20;1.10;;;24.40;56.30;;;;;;6291307;28;20021;-69
2021/07/24 04:45:47;;;;;;;1.42;1.30;;;24.40;56.30;;;;;;6292034;28;20081;-70
2021/07/24 04:48:48;;;;;;;1.23;1.13;;;24.40;56.30;;;;;;6291389;28;20028;-69
2021/07/24 04:51:48;;;;;;;1.40;1.30;;;24.40;56.30;;;;;;6291505;28;20026;-69
2021/07/24 04:54:49;;;;;;;1.60;1.50;;;24.40;56.30;;;;;;6291484;28;20045;-69
2021/07/24 04:57:51;;;;;;;1.80;1.30;;;24.40;56.30;;;;;;6291716;28;20438;-70
2021/07/24 05:00:53;;;;;;;1.60;1.30;;;24.40;56.30;;;;;;6287158;28;20078;-69
2021/07/24 05:03:53;;;;;;;1.48;1.23;;;24.40;56.40;;;;;;6241986;28;20075;-70
2021/07/24 05:06:55;;;;;;;1.70;1.50;;;24.40;56.40;;;;;;6264666;28;20028;-69
2021/07/24 05:09:56;;;;;;;1.38;1.27;;;24.40;56.30;;;;;;6267363;28;20458;-69
2021/07/24 05:12:56;;;;;;;1.17;1.08;;;24.40;56.30;;;;;;6286368;28;20036;-70
2021/07/24 05:15:57;;;;;;;1.40;1.30;;;24.40;56.40;;;;;;6259558;28;20031;-70
2021/07/24 05:19:00;;;;;;;1.13;1.02;;;24.40;56.40;;;;;;6279239;28;20309;-70
2021/07/24 05:22:00;;;;;;;1.23;1.13;;;24.40;56.40;;;;;;6283113;28;20029;-69
2021/07/24 05:25:01;;;;;;;1.40;1.30;;;24.40;56.40;;;;;;6290897;28;20449;-70
2021/07/24 05:28:02;;;;;;;1.40;1.30;;;24.40;56.40;;;;;;6291130;28;20031;-70
2021/07/24 05:31:02;;;;;;;1.50;1.25;;;24.40;56.40;;;;;;6290777;28;20028;-69
2021/07/24 05:34:03;;;;;;;1.50;1.40;;;24.40;56.40;;;;;;6290983;28;20083;-69
2021/07/24 05:37:03;;;;;;;1.10;1.00;;;24.40;56.50;;;;;;6290720;28;20040;-70
2021/07/24 05:40:05;;;;;;;1.20;1.10;;;24.40;56.40;;;;;;6291080;28;20399;-69
2021/07/24 05:43:05;;;;;;;1.40;1.20;;;24.40;56.50;;;;;;6290369;28;20032;-69
2021/07/24 05:46:06;;;;;;;1.30;1.20;;;24.40;56.50;;;;;;6290607;28;20090;-69
2021/07/24 05:49:06;;;;;;;1.52;1.40;;;24.40;56.50;;;;;;6292539;28;20028;-69
2021/07/24 05:52:11;;;;;;;1.60;1.25;;;24.40;56.50;;;;;;6295814;28;20074;-70
2021/07/24 05:55:12;;;;;;;1.88;1.70;;;24.40;56.50;;;;;;6294969;28;20053;-70
2021/07/24 05:58:12;;;;;;;1.30;1.10;;;24.40;56.50;;;;;;6295537;28;20071;-69
2021/07/24 06:01:13;;;;;;;1.30;1.20;;;24.40;56.50;;;;;;6295264;28;20038;-69
2021/07/24 06:04:14;;;;;;;1.73;1.20;;;24.40;56.50;;;;;;6295393;28;20020;-69
2021/07/24 06:07:14;;;;;;;1.70;1.30;;;24.40;56.50;;;;;;6295201;28;20028;-69
2021/07/24 06:10:15;;;;;;;1.25;1.15;;;24.40;56.50;;;;;;6295303;28;20025;-69
2021/07/24 06:13:17;;;;;;;1.48;1.30;;;24.40;56.50;;;;;;6284922;28;20021;-70
2021/07/24 06:16:17;;;;;;;1.20;1.10;;;24.40;56.50;;;;;;6250466;28;20033;-70
2021/07/24 06:19:18;;;;;;;1.20;1.10;;;24.40;56.50;;;;;;6280672;28;20075;-70
2021/07/24 06:22:18;;;;;;;1.50;1.40;;;24.40;56.50;;;;;;6280142;28;20036;-70
2021/07/24 06:25:19;;;;;;;1.45;1.13;;;24.40;56.50;;;;;;6295265;28;20525;-69
2021/07/24 06:28:21;;;;;;;1.40;1.30;;;24.40;56.50;;;;;;6294619;28;20028;-70
2021/07/24 06:31:22;;;;;;;1.48;1.38;;;24.40;56.50;;;;;;6294571;28;20383;-69
2021/07/24 06:34:22;;;;;;;2.22;1.50;;;24.40;56.60;;;;;;6294815;28;20029;-69
2021/07/24 06:37:23;;;;;;;1.55;1.15;;;24.40;56.50;;;;;;6294100;28;20046;-69
2021/07/24 06:40:23;;;;;;;1.30;1.20;;;24.40;56.50;;;;;;6294793;28;20036;-70
2021/07/24 06:43:24;;;;;;;1.20;1.10;;;24.40;56.50;;;;;;6294028;28;20024;-70
2021/07/24 06:46:24;;;;;;;1.10;1.00;;;24.40;56.50;;;;;;6294464;28;20475;-69
2021/07/24 06:49:25;;;;;;;1.30;1.20;;;24.40;56.50;;;;;;6294235;28;20028;-69
2021/07/24 06:52:25;;;;;;;1.38;1.20;;;24.40;56.50;;;;;;6293815;28;20036;-70
2021/07/24 06:55:27;;;;;;;1.48;1.27;;;24.40;56.50;;;;;;6293731;28;20041;-70
2021/07/24 06:58:27;;;;;;;1.30;1.20;;;24.40;56.50;;;;;;6293513;28;20025;-70
2021/07/24 07:01:28;;;;;;;1.30;1.20;;;24.40;56.60;;;;;;6293526;28;20024;-69
2021/07/24 07:04:28;;;;;;;1.30;1.20;;;24.40;56.60;;;;;;6292336;28;20441;-69
2021/07/24 07:07:29;;;;;;;1.52;1.20;;;24.40;56.50;;;;;;6293723;28;20025;-70
2021/07/24 07:10:29;;;;;;;1.25;1.15;;;24.40;56.60;;;;;;6293832;28;20102;-69
2021/07/24 07:13:30;;;;;;;1.58;1.30;;;24.40;56.60;;;;;;6278163;28;20168;-70
2021/07/24 07:16:31;;;;;;;0.93;0.90;;;24.40;56.60;;;;;;6243980;28;20036;-69
2021/07/24 07:19:31;;;;;;;1.38;1.27;;;24.40;56.60;;;;;;6266316;28;20399;-69
2021/07/24 07:22:32;;;;;;;1.42;1.10;;;24.40;56.60;;;;;;6270607;28;20028;-69
2021/07/24 07:25:32;;;;;;;1.10;1.00;;;24.40;56.60;;;;;;6293889;28;20467;-69
2021/07/24 07:28:33;;;;;;;1.20;1.10;;;24.40;56.60;;;;;;6293101;28;20021;-70
2021/07/24 07:31:35;;;;;;;1.20;1.10;;;24.40;56.60;;;;;;6293307;28;20052;-70
2021/07/24 07:34:36;;;;;;;1.20;1.10;;;24.40;56.60;;;;;;6293184;28;20042;-69
2021/07/24 07:37:48;;;;;;;1.45;1.35;;;24.40;56.60;;;;;;6292902;28;20028;-69
2021/07/24 07:40:49;;;;;;;1.38;1.27;;;24.40;56.60;;;;;;6293250;28;20103;-70
2021/07/24 07:43:50;;;;;;;1.27;1.15;;;24.40;56.70;;;;;;6292406;28;20046;-69
2021/07/24 07:46:51;;;;;;;1.40;1.30;;;24.40;56.70;;;;;;6292651;28;20029;-69
2021/07/24 07:49:51;;;;;;;1.58;1.25;;;24.40;56.60;;;;;;6292968;28;20025;-70
2021/07/24 07:52:52;;;;;;;1.27;1.17;;;24.40;56.70;;;;;;6292560;28;20036;-70
2021/07/24 07:55:52;;;;;;;1.40;1.30;;;24.40;56.70;;;;;;6292741;28;20123;-69
2021/07/24 07:58:53;;;;;;;1.30;1.20;;;24.40;56.70;;;;;;6292897;28;20031;-70
2021/07/24 08:01:54;;;;;;;1.33;1.23;;;24.40;56.70;;;;;;6292694;28;20024;-69
2021/07/24 08:04:54;;;;;;;1.20;1.10;;;24.40;56.70;;;;;;6277374;28;20102;-70
2021/07/24 08:07:55;;;;;;;1.38;1.10;;;24.40;56.70;;;;;;6267920;28;20063;-70
2021/07/24 08:10:55;;;;;;;1.38;1.27;;;24.40;56.70;;;;;;6288438;28;20032;-69
2021/07/24 08:13:56;;;;;;;1.45;1.33;;;24.40;56.70;;;;;;6276185;28;20043;-69
2021/07/24 08:16:57;;;;;;;1.33;1.20;;;24.40;56.70;;;;;;6292373;28;20380;-69
2021/07/24 08:19:57;;;;;;;1.10;1.00;;;24.40;56.70;;;;;;6282518;28;20040;-69
2021/07/24 08:22:58;;;;;;;1.05;0.95;;;24.40;56.70;;;;;;6291766;28;20024;-69
2021/07/24 08:25:58;;;;;;;1.38;1.23;;;24.40;56.80;;;;;;6291681;28;20324;-70
2021/07/24 08:28:59;;;;;;;1.30;1.20;;;24.40;56.70;;;;;;6292039;28;20707;-70
2021/07/24 08:32:00;;;;;;;1.35;1.25;;;24.40;56.70;;;;;;6291831;28;20479;-69
2021/07/24 08:35:00;;;;;;;1.30;1.20;;;24.40;56.70;;;;;;6292068;28;20391;-69
2021/07/24 08:38:00;;;;;;;1.25;1.05;;;24.40;56.80;;;;;;6291722;28;20131;-70
2021/07/24 08:41:02;;;;;;;1.48;1.10;;;24.40;56.80;;;;;;6291654;28;20267;-69
2021/07/24 08:44:03;;;;;;;1.35;1.10;;;24.40;56.80;;;;;;6291459;28;20498;-70
2021/07/24 08:47:04;;;;;;;1.30;1.20;;;24.40;56.80;;;;;;6291562;28;20032;-69
2021/07/24 08:50:06;;;;;;;1.20;1.10;;;24.40;56.80;;;;;;6291765;28;20048;-69
2021/07/24 08:53:08;;;;;;;1.42;1.23;;;24.40;56.80;;;;;;6291863;28;20023;-70
2021/07/24 08:56:17;;;;;;;1.38;1.27;;;24.40;56.80;;;;;;6291054;28;20517;-70
2021/07/24 08:59:19;;;;;;;1.27;1.17;;;24.40;56.80;;;;;;6291959;28;20437;-69
2021/07/24 09:02:26;;;;;;;1.30;1.20;;;24.40;56.80;;;;;;6291541;28;20509;-70
2021/07/24 09:05:29;;;;;;;1.25;1.15;;;24.40;56.80;;;;;;6283447;28;20139;-70
2021/07/24 09:08:30;;;;;;;1.52;1.42;;;24.40;56.80;;;;;;6266734;28;20074;-69
2021/07/24 09:11:31;;;;;;;1.10;1.00;;;24.40;56.80;;;;;;6280713;28;20410;-70
2021/07/24 09:14:31;;;;;;;1.30;1.20;;;24.40;56.80;;;;;;6260585;28;20021;-69
2021/07/24 09:17:32;;;;;;;1.77;1.42;;;24.40;56.80;;;;;;6285799;28;20037;-70
2021/07/24 09:20:34;;;;;;;1.75;1.27;;;24.40;56.80;;;;;;6271442;28;20068;-70
2021/07/24 09:23:43;;;;;;;1.38;1.20;;;24.30;56.70;;;;;;6292486;28;20021;-69
2021/07/24 09:26:43;;;;;;;1.20;1.10;;;24.30;56.70;;;;;;6296192;28;20278;-69
2021/07/24 09:29:44;;;;;;;1.45;1.35;;;24.30;56.80;;;;;;6296858;28;20085;-70
2021/07/24 09:33:13;;;;;;;1.40;1.30;;;24.40;56.90;;;;;;6296033;28;20027;-70
2021/07/24 09:36:29;;;;;;;1.30;1.20;;;24.30;56.80;;;;;;6295707;28;20495;-69
2021/07/24 09:39:30;;;;;;;1.98;1.35;;;24.30;56.80;;;;;;6296036;28;20531;-70
2021/07/24 09:42:32;;;;;;;1.88;1.35;;;24.30;56.70;;;;;;6291198;28;20021;-70
2021/07/24 09:45:33;;;;;;;1.50;1.40;;;24.30;56.70;;;;;;6295394;28;20338;-69
2021/07/24 09:48:34;;;;;;;1.50;1.20;;;24.30;56.80;;;;;;6295837;28;20032;-69
2021/07/24 09:51:48;;;;;;;1.90;1.60;;;24.30;56.80;;;;;;6294172;28;20024;-69
2021/07/24 09:54:48;;;;;;;1.63;1.30;;;24.30;56.80;;;;;;6295738;28;20055;-70
2021/07/24 09:57:58;;;;;;;1.90;1.58;;;24.30;56.80;;;;;;6295441;28;20032;-70
2021/07/24 10:01:10;;;;;;;1.38;1.27;;;24.30;56.70;;;;;;6294995;28;20032;-70
2021/07/24 10:04:11;;;;;;;1.70;1.42;;;24.30;56.70;;;;;;6295563;28;20035;-69
2021/07/24 10:07:12;;;;;;;1.17;1.08;;;24.40;56.90;;;;;;6294893;28;20056;-70
2021/07/24 10:10:12;;;;;;;1.63;1.40;;;24.40;56.90;;;;;;6295835;28;20073;-70
2021/07/24 10:13:15;;;;;;;1.50;1.40;;;24.40;56.80;;;;;;6285245;28;20032;-69
2021/07/24 10:16:18;;;;;;;1.83;1.42;;;24.30;56.80;;;;;;6254717;28;20040;-70
2021/07/24 10:19:20;;;;;;;1.42;1.30;;;24.40;56.90;;;;;;6280302;28;20388;-69
2021/07/24 10:22:22;;;;;;;1.58;1.35;;;24.40;56.90;;;;;;6278475;28;20475;-69
2021/07/24 10:25:24;;;;;;;1.33;1.20;;;24.40;56.90;;;;;;6294872;28;20020;-69
2021/07/24 10:28:38;;;;;;;1.63;1.40;;;24.40;56.90;;;;;;6294673;28;20032;-70
2021/07/24 10:31:52;;;;;;;1.63;1.45;;;24.40;56.90;;;;;;6294391;28;20029;-69
2021/07/24 10:34:54;;;;;;;1.65;1.45;;;24.30;56.80;;;;;;6293553;28;20500;-69
2021/07/24 10:37:55;;;;;;;1.83;1.50;;;24.40;56.90;;;;;;6294338;28;20047;-70
2021/07/24 10:41:14;;;;;;;1.50;1.33;;;24.30;56.80;;;;;;6294975;28;20483;-70
2021/07/24 10:44:24;;;;;;;1.67;1.40;;;24.40;56.90;;;;;;6294008;28;20464;-69
2021/07/24 10:47:24;;;;;;;1.90;1.50;;;24.30;56.80;;;;;;6294364;28;20020;-69
2021/07/24 10:50:25;;;;;;;1.50;1.40;;;24.30;56.80;;;;;;6294325;28;20035;-70
2021/07/24 10:53:29;;;;;;;1.30;1.20;;;24.30;56.80;;;;;;6293778;28;20035;-69
2021/07/24 10:56:39;;;;;;;1.57;1.43;;;24.40;56.90;;;;;;6294357;28;20090;-69
2021/07/24 10:59:40;;;;;;;1.60;1.50;;;24.30;56.80;;;;;;6293864;28;20430;-69
2021/07/24 11:02:47;;;;;;;1.30;1.20;;;24.30;56.90;;;;;;6288568;28;20037;-69
2021/07/24 11:05:48;;;;;;;1.60;1.50;;;24.40;56.90;;;;;;6269072;28;20422;-70
2021/07/24 11:09:09;;;;;;;1.40;1.30;;;24.30;56.80;;;;;;6281275;28;20024;-70
2021/07/24 11:12:14;;;;;;;1.88;1.40;;;24.30;56.90;;;;;;6293458;28;20044;-70
2021/07/24 11:15:21;;;;;;;;;;;24.30;56.90;;;;;;6251102;28;20040;-69
2021/07/24 11:18:23;;;;;;;1.60;1.50;;;24.30;56.90;;;;;;6258040;28;20014;-70
2021/07/24 11:22:02;;;;;;;1.75;1.52;;;24.30;56.90;;;;;;6293419;28;20375;-70
2021/07/24 11:25:03;;;;;;;1.50;1.40;;;24.30;56.90;;;;;;6293071;28;20036;-69
2021/07/24 11:28:03;;;;;;;1.65;1.40;;;24.30;56.90;;;;;;6293529;28;20020;-70
2021/07/24 11:31:05;;;;;;;1.50;1.35;;;24.30;56.90;;;;;;6293501;28;20017;-70
2021/07/24 11:34:07;;;;;;;1.83;1.50;;;24.40;57.00;;;;;;6293217;28;20040;-69
2021/07/24 11:37:07;;;;;;;1.67;1.33;;;24.30;56.90;;;;;;6292873;28;20479;-69
2021/07/24 11:40:15;;;;;;;1.80;1.40;;;24.30;56.90;;;;;;6293066;28;20024;-70
2021/07/24 11:43:17;;;;;;;1.67;1.48;;;24.30;56.90;;;;;;6277610;28;20021;-70
2021/07/24 11:46:17;;;;;;;1.80;1.50;;;24.30;56.90;;;;;;6293134;28;20032;-70
2021/07/24 11:49:20;;;;;;;1.48;1.38;;;24.30;56.90;;;;;;6293005;28;20322;-69
2021/07/24 11:52:24;;;;;;;1.45;1.35;;;24.30;57.00;;;;;;6294044;28;20089;-69
2021/07/24 11:55:29;;;;;;;1.33;1.23;;;24.30;56.90;;;;;;6296011;28;20059;-68
2021/07/24 11:58:30;;;;;;;1.65;1.40;;;24.30;57.00;;;;;;6293172;28;20024;-69
2021/07/24 12:01:30;;;;;;;1.65;1.55;;;24.30;56.90;;;;;;6292994;28;20345;-69
2021/07/24 12:04:31;;;;;;;2.63;1.70;;;24.30;56.90;;;;;;6292575;28;20040;-69
2021/07/24 12:07:32;;;;;;;2.22;1.50;;;24.30;56.90;;;;;;6293086;28;20024;-69
2021/07/24 12:10:38;;;;;;;1.55;1.45;;;24.30;57.00;;;;;;6292367;28;20020;-68
2021/07/24 12:13:39;;;;;;;2.20;1.70;;;24.40;57.00;;;;;;6244587;28;20029;-68
2021/07/24 12:16:41;;;;;;;1.63;1.50;;;24.30;57.00;;;;;;6283879;28;20095;-68
2021/07/24 12:19:44;;;;;;;1.52;1.42;;;24.30;57.00;;;;;;6276152;28;20118;-68
2021/07/24 12:22:45;;;;;;;2.00;1.63;;;24.30;57.00;;;;;;6291915;28;20112;-68
2021/07/24 12:25:45;;;;;;;1.60;1.40;;;24.30;57.00;;;;;;6292102;28;20453;-68
2021/07/24 12:28:46;;;;;;;1.50;1.40;;;24.30;57.00;;;;;;6292166;28;20051;-69
2021/07/24 12:31:48;;;;;;;1.63;1.52;;;24.30;57.00;;;;;;6291796;28;20468;-68
2021/07/24 12:34:49;;;;;;;1.20;1.10;;;24.30;57.00;;;;;;6291863;28;20021;-69
2021/07/24 12:38:02;;;;;;;1.80;1.70;;;24.30;57.00;;;;;;6291705;28;20036;-69
2021/07/24 12:41:06;;;;;;;1.40;1.20;;;24.30;57.00;;;;;;6291745;28;20035;-69
2021/07/24 12:44:08;;;;;;;1.67;1.40;;;24.30;57.00;;;;;;6291695;28;20036;-68
2021/07/24 12:47:14;;;;;;;1.60;1.40;;;24.30;57.00;;;;;;6291032;28;20115;-69
2021/07/24 12:50:16;;;;;;;1.63;1.30;;;24.30;57.00;;;;;;6291472;28;20025;-69
2021/07/24 12:53:19;;;;;;;1.38;1.27;;;24.30;57.00;;;;;;6291830;28;20033;-68
2021/07/24 12:56:20;;;;;;;1.50;1.40;;;24.30;57.00;;;;;;6290882;28;20092;-68
2021/07/24 12:59:21;;;;;;;2.03;1.58;;;24.30;57.00;;;;;;6291224;28;20029;-68
2021/07/24 13:02:22;;;;;;;1.45;1.30;;;24.30;57.00;;;;;;6241725;28;20532;-68
2021/07/24 13:05:23;;;;;;;1.75;1.55;;;24.30;57.00;;;;;;6252256;28;20021;-69
2021/07/24 13:08:24;;;;;;;1.70;1.58;;;24.30;57.00;;;;;;6266526;28;20031;-69
2021/07/24 13:11:25;;;;;;;1.42;1.30;;;24.30;57.00;;;;;;6277359;28;20024;-69
2021/07/24 13:14:26;;;;;;;1.30;1.20;;;24.40;57.10;;;;;;6262157;28;20030;-69
2021/07/24 13:17:26;;;;;;;2.20;1.70;;;24.30;57.00;;;;;;6278949;28;20072;-68
2021/07/24 13:20:27;;;;;;;2.42;1.67;;;24.30;57.00;;;;;;6268148;28;20384;-68
2021/07/24 13:23:27;;;;;;;2.22;1.83;;;24.30;57.00;;;;;;6291253;28;20070;-68
2021/07/24 13:29:46;;;;;;;1.67;1.48;;;24.30;57.00;;;;;;6291289;28;20082;-68
2021/07/24 13:32:49;;;;;;;2.00;1.65;;;24.30;57.00;;;;;;6291303;28;20480;-68
2021/07/24 13:35:49;;;;;;;2.08;1.40;;;24.30;57.00;;;;;;6290790;28;20475;-69
2021/07/24 13:38:50;;;;;;;1.73;1.58;;;24.30;57.10;;;;;;6291543;28;20067;-69
2021/07/24 13:41:50;;;;;;;2.00;1.65;;;24.30;57.10;;;;;;6290823;28;20063;-68
2021/07/24 13:44:51;;;;;;;2.20;1.67;;;24.30;57.00;;;;;;6291238;28;20032;-68
2021/07/24 13:47:51;;;;;;;1.55;1.40;;;24.30;57.00;;;;;;6290757;28;20035;-69
2021/07/24 13:50:52;;;;;;;1.77;1.60;;;24.30;57.10;;;;;;6291010;28;20058;-68
2021/07/24 13:53:53;;;;;;;1.60;1.48;;;24.30;57.10;;;;;;6290815;28;20091;-68
2021/07/24 13:56:53;;;;;;;1.70;1.58;;;24.30;57.10;;;;;;6290401;28;20060;-68
2021/07/24 13:59:54;;;;;;;1.30;1.20;;;24.30;57.10;;;;;;6290895;28;20027;-69
2021/07/24 14:02:55;;;;;;;2.08;1.67;;;24.30;57.10;;;;;;6290244;28;20105;-68
2021/07/24 14:06:02;;;;;;;1.70;1.60;;;24.30;57.10;;;;;;6291050;28;20028;-69
2021/07/24 14:09:03;;;;;;;1.70;1.48;;;24.30;57.10;;;;;;6290577;28;20036;-68
2021/07/24 14:12:05;;;;;;;2.08;1.73;;;24.30;57.10;;;;;;6294898;28;20111;-69
2021/07/24 14:15:06;;;;;;;2.10;1.70;;;24.30;57.10;;;;;;6254799;28;20025;-68
2021/07/24 14:18:06;;;;;;;1.60;1.50;;;24.30;57.10;;;;;;6270751;28;20383;-69
2021/07/24 14:21:07;;;;;;;2.17;1.75;;;24.30;57.10;;;;;;6270568;28;20438;-68
2021/07/24 14:24:08;;;;;;;1.95;1.75;;;24.30;57.10;;;;;;6293385;28;20035;-69
2021/07/24 14:27:08;;;;;;;1.60;1.20;;;24.30;57.10;;;;;;6294848;28;20526;-68
2021/07/24 14:30:10;;;;;;;1.83;1.55;;;24.30;57.10;;;;;;6295026;28;20024;-68
2021/07/24 14:33:10;;;;;;;1.83;1.48;;;24.30;57.10;;;;;;6294751;28;20107;-68
2021/07/24 14:36:14;;;;;;;1.67;1.50;;;24.30;57.10;;;;;;6294698;28;20046;-69
2021/07/24 14:39:16;;;;;;;2.05;1.48;;;24.30;57.10;;;;;;6294476;28;20123;-69
2021/07/24 14:42:16;;;;;;;1.88;1.67;;;24.40;57.20;;;;;;6294664;28;20036;-69
2021/07/24 14:45:20;;;;;;;1.73;1.50;;;24.30;57.10;;;;;;6294759;28;20025;-69
2021/07/24 14:48:21;;;;;;;1.67;1.50;;;24.30;57.10;;;;;;6294040;28;20116;-68
2021/07/24 14:51:22;;;;;;;2.13;1.52;;;24.30;57.10;;;;;;6294018;28;20073;-68
2021/07/24 14:54:23;;;;;;;1.90;1.63;;;24.30;57.10;;;;;;6294081;28;20063;-68
2021/07/24 14:57:23;;;;;;;1.77;1.40;;;24.30;57.10;;;;;;6294230;28;20041;-68
2021/07/24 15:00:24;;;;;;;1.73;1.55;;;24.30;57.10;;;;;;6294700;28;20112;-68
2021/07/24 15:03:24;;;;;;;1.60;1.48;;;24.30;57.10;;;;;;6294047;28;20104;-68
2021/07/24 15:06:25;;;;;;;1.70;1.60;;;24.30;57.10;;;;;;6294455;28;20480;-69
2021/07/24 15:09:25;;;;;;;2.00;1.70;;;24.30;57.10;;;;;;6293681;28;20032;-68
2021/07/24 15:12:26;;;;;;;1.38;1.20;;;24.30;57.20;;;;;;6294142;28;20177;-68
2021/07/24 15:15:26;;;;;;;2.08;1.70;;;24.30;57.20;;;;;;6292384;28;20036;-69
2021/07/24 15:18:28;;;;;;;1.50;1.30;;;24.30;57.20;;;;;;6291579;28;20028;-69
2021/07/24 15:21:29;;;;;;;1.50;1.33;;;24.30;57.20;;;;;;6293154;28;20077;-69
2021/07/24 15:24:29;;;;;;;1.55;1.45;;;24.30;57.20;;;;;;6293611;28;20446;-68
2021/07/24 15:27:30;;;;;;;1.92;1.73;;;24.30;57.20;;;;;;6291310;28;20059;-69
2021/07/24 15:30:30;;;;;;;1.48;1.38;;;24.30;57.20;;;;;;6293422;28;20323;-69
2021/07/24 15:33:31;;;;;;;2.65;1.58;;;24.30;57.20;;;;;;6293044;28;20025;-68
2021/07/24 15:36:32;;;;;;;1.35;1.25;;;24.30;57.20;;;;;;6293393;28;20043;-69
2021/07/24 15:39:33;;;;;;;1.55;1.45;;;24.30;57.20;;;;;;6293442;28;20033;-69
2021/07/24 15:42:33;;;;;;;1.48;1.27;;;24.30;57.20;;;;;;6293458;28;20032;-69
2021/07/24 15:45:34;;;;;;;1.50;1.40;;;24.30;57.20;;;;;;6292622;28;20085;-68
2021/07/24 15:48:34;;;;;;;1.60;1.40;;;24.30;57.20;;;;;;6292930;28;20035;-69
2021/07/24 15:51:35;;;;;;;1.70;1.60;;;24.30;57.20;;;;;;6292908;28;20028;-69
2021/07/24 15:54:36;;;;;;;1.40;1.27;;;24.30;57.20;;;;;;6292612;28;20056;-68
2021/07/24 15:57:36;;;;;;;1.40;1.30;;;24.30;57.20;;;;;;6292267;28;20048;-69